Time;durP1;ratioP1;P1;durP2;ratioP2;P2;SDS_P1;SDS_P2;PMS_P1;PMS_P2;Temp;Humidity;BMP_temperature;BMP_pressure;BME280_temperature;BME280_humidity;BME280_pressure;Samples;Min_cycle;Max_cycle;Signal;HPM_P1;HPM_P2
2022/09/22 00:00:32;;;;;;;44.20;25.77;;;10.80;99.90;;;;;;5094430;28;20480;-52
2022/09/22 00:02:58;;;;;;;45.25;28.00;;;10.80;99.90;;;;;;5094502;28;20512;-52
2022/09/22 00:05:24;;;;;;;43.60;25.83;;;10.70;99.90;;;;;;5094842;28;20051;-52
2022/09/22 00:07:52;;;;;;;52.38;30.73;;;10.60;99.90;;;;;;5094627;28;20024;-52
2022/09/22 00:10:20;;;;;;;51.38;32.83;;;10.60;99.90;;;;;;5076525;28;20043;-52
2022/09/22 00:12:47;;;;;;;51.15;28.88;;;10.50;99.90;;;;;;5094495;28;20028;-52
2022/09/22 00:15:13;;;;;;;49.92;27.52;;;10.50;99.90;;;;;;5076340;28;20036;-52
2022/09/22 00:17:39;;;;;;;37.40;24.98;;;10.40;99.90;;;;;;5094727;28;20031;-52
2022/09/22 00:20:06;;;;;;;44.90;25.58;;;10.40;99.90;;;;;;5094285;28;20051;-52
2022/09/22 00:22:32;;;;;;;47.90;27.13;;;10.40;99.90;;;;;;5094516;28;20081;-52
2022/09/22 00:24:58;;;;;;;68.60;40.28;;;10.30;99.90;;;;;;5094668;28;20025;-52
2022/09/22 00:27:25;;;;;;;44.95;25.17;;;10.40;99.90;;;;;;5094338;28;20050;-52
2022/09/22 00:29:51;;;;;;;41.55;23.85;;;10.50;99.90;;;;;;5094500;28;20604;-52
2022/09/22 00:32:17;;;;;;;44.72;24.88;;;10.60;99.90;;;;;;5094519;28;20111;-52
2022/09/22 00:34:44;;;;;;;40.22;24.15;;;10.60;99.90;;;;;;5094352;28;20028;-52
2022/09/22 00:37:10;;;;;;;45.13;23.58;;;10.50;99.90;;;;;;5096918;28;20484;-52
2022/09/22 00:39:36;;;;;;;41.10;23.88;;;10.40;99.90;;;;;;5114083;28;20044;-53
2022/09/22 00:42:03;;;;;;;39.05;25.55;;;10.40;99.90;;;;;;5098232;28;20119;-52
2022/09/22 00:44:36;;;;;;;37.13;24.88;;;10.40;99.90;;;;;;5098391;28;20027;-52
2022/09/22 00:47:20;;;;;;;40.22;24.63;;;10.30;99.90;;;;;;5098185;28;20028;-52
2022/09/22 00:50:08;;;;;;;44.83;26.60;;;10.20;99.90;;;;;;5098126;28;20028;-52
2022/09/22 00:52:58;;;;;;;41.67;25.13;;;10.20;99.90;;;;;;5098044;28;20488;-52
2022/09/22 00:55:39;;;;;;;45.15;25.75;;;10.10;99.90;;;;;;5093471;28;20032;-52
2022/09/22 00:58:10;;;;;;;;;;;10.10;99.90;;;;;;5098512;28;20111;-52
2022/09/22 01:00:36;;;;;;;39.17;24.52;;;10.10;99.90;;;;;;5097950;28;19916;-52
2022/09/22 01:03:07;;;;;;;39.83;24.92;;;10.00;99.90;;;;;;5097896;28;20534;-52
2022/09/22 01:05:33;;;;;;;41.35;26.30;;;10.00;99.90;;;;;;5113613;28;20024;-52
2022/09/22 01:08:01;;;;;;;45.67;27.15;;;10.10;99.90;;;;;;5079596;28;20035;-52
2022/09/22 01:10:27;;;;;;;42.95;25.23;;;10.00;99.90;;;;;;5097817;28;20105;-52
2022/09/22 01:13:14;;;;;;;52.15;28.15;;;10.00;99.90;;;;;;5097815;28;20047;-52
2022/09/22 01:15:46;;;;;;;46.83;26.90;;;10.00;99.90;;;;;;5113524;28;20032;-52
2022/09/22 01:18:41;;;;;;;45.10;25.42;;;9.90;99.90;;;;;;5097543;28;20028;-52
2022/09/22 01:21:19;;;;;;;47.03;26.92;;;9.90;99.90;;;;;;5097526;28;20028;-52
2022/09/22 01:24:34;;;;;;;45.00;26.58;;;9.80;99.90;;;;;;5097422;28;20036;-52
2022/09/22 01:27:06;;;;;;;50.30;25.92;;;9.70;99.90;;;;;;5079930;28;20059;-52
2022/09/22 01:29:50;;;;;;;49.45;28.50;;;9.70;99.90;;;;;;5097532;28;20039;-52
2022/09/22 01:32:21;;;;;;;49.08;27.73;;;9.70;99.90;;;;;;5097396;28;20032;-52
2022/09/22 01:35:11;;;;;;;51.72;29.85;;;9.70;99.90;;;;;;5097378;28;20082;-52
2022/09/22 01:37:53;;;;;;;56.72;29.50;;;9.70;99.90;;;;;;5097325;28;20393;-52
2022/09/22 01:40:41;;;;;;;53.67;28.85;;;9.70;99.90;;;;;;5096944;28;20040;-52
2022/09/22 01:43:27;;;;;;;42.78;24.52;;;9.60;99.90;;;;;;5097216;28;20034;-52
2022/09/22 01:45:54;;;;;;;46.60;25.95;;;9.60;99.90;;;;;;5096649;28;20040;-52
2022/09/22 01:48:32;;;;;;;44.08;23.77;;;9.50;99.90;;;;;;5096514;28;20506;-52
2022/09/22 01:51:05;;;;;;;41.22;23.23;;;9.40;99.90;;;;;;5078897;28;20110;-52
2022/09/22 01:53:38;;;;;;;46.88;26.75;;;9.30;99.90;;;;;;5096880;28;20036;-52
2022/09/22 01:56:08;;;;;;;53.13;29.20;;;9.30;99.90;;;;;;5096939;28;20038;-52
2022/09/22 01:58:44;;;;;;;41.17;23.03;;;9.20;99.90;;;;;;5112778;28;20040;-52
2022/09/22 02:01:18;;;;;;;46.35;22.33;;;9.20;99.90;;;;;;5096646;28;20481;-52
2022/09/22 02:04:11;;;;;;;33.75;20.00;;;9.10;99.90;;;;;;5096869;28;20020;-52
2022/09/22 02:06:56;;;;;;;34.13;20.30;;;9.10;99.90;;;;;;5096791;28;20112;-52
2022/09/22 02:09:28;;;;;;;37.92;20.05;;;9.20;99.90;;;;;;5096935;28;20036;-52
2022/09/22 02:11:55;;;;;;;35.85;20.25;;;9.30;99.90;;;;;;5096734;28;20115;-52
2022/09/22 02:14:20;;;;;;;39.22;22.77;;;9.30;99.90;;;;;;5096884;28;20085;-52
2022/09/22 02:16:47;;;;;;;39.78;22.40;;;9.30;99.90;;;;;;5096406;28;20036;-52
2022/09/22 02:19:29;;;;;;;42.08;24.70;;;9.40;99.90;;;;;;5096331;28;20024;-52
2022/09/22 02:21:55;;;;;;;41.58;24.35;;;9.30;99.90;;;;;;5096242;28;20066;-52
2022/09/22 02:24:28;;;;;;;51.75;27.02;;;9.30;99.90;;;;;;5096416;28;20038;-52
2022/09/22 02:27:01;;;;;;;47.53;25.40;;;9.30;99.90;;;;;;5096593;28;20027;-52
2022/09/22 02:29:31;;;;;;;49.25;27.20;;;9.30;99.90;;;;;;5078110;28;20474;-52
2022/09/22 02:31:59;;;;;;;49.00;26.77;;;9.30;99.90;;;;;;5096178;28;20040;-52
2022/09/22 02:34:25;;;;;;;50.72;29.10;;;9.30;99.90;;;;;;5096212;28;20028;-52
2022/09/22 02:37:12;;;;;;;53.17;29.50;;;9.30;99.90;;;;;;5077996;28;20040;-52
2022/09/22 02:39:40;;;;;;;51.22;25.67;;;9.30;99.90;;;;;;5095844;28;20510;-52
2022/09/22 02:42:38;;;;;;;55.42;28.15;;;9.40;99.90;;;;;;5095964;28;20107;-52
2022/09/22 02:45:08;;;;;;;47.50;25.83;;;9.40;99.90;;;;;;5095931;28;20032;-52
2022/09/22 02:47:51;;;;;;;51.97;24.95;;;9.40;99.90;;;;;;5096038;28;20020;-52
2022/09/22 02:50:21;;;;;;;51.22;25.67;;;9.50;99.90;;;;;;5095851;28;20043;-52
2022/09/22 02:52:51;;;;;;;53.47;28.38;;;9.50;99.90;;;;;;5095897;28;20032;-52
2022/09/22 02:55:18;;;;;;;48.83;25.33;;;9.50;99.90;;;;;;5095919;28;20035;-52
2022/09/22 02:57:44;;;;;;;55.83;24.58;;;9.50;99.90;;;;;;5095720;28;20388;-52
2022/09/22 03:00:11;;;;;;;52.03;22.52;;;9.50;99.90;;;;;;5094823;28;20119;-52
2022/09/22 03:02:37;;;;;;;50.78;22.95;;;9.50;99.90;;;;;;5095836;28;20034;-52
2022/09/22 03:05:03;;;;;;;51.92;22.10;;;9.60;99.90;;;;;;5095562;28;20384;-52
2022/09/22 03:07:29;;;;;;;56.50;27.55;;;9.50;99.90;;;;;;5095674;28;20059;-52
2022/09/22 03:09:55;;;;;;;51.53;26.30;;;9.50;99.90;;;;;;5077576;28;20040;-52
2022/09/22 03:12:21;;;;;;;83.30;37.00;;;9.50;99.90;;;;;;5095482;28;20028;-52
2022/09/22 03:14:48;;;;;;;69.15;33.63;;;9.60;99.90;;;;;;5095437;28;20024;-52
2022/09/22 03:17:14;;;;;;;75.63;31.80;;;9.60;99.90;;;;;;5095421;28;20032;-52
2022/09/22 03:19:40;;;;;;;84.43;34.65;;;9.50;99.90;;;;;;5095316;28;20085;-52
2022/09/22 03:22:07;;;;;;;67.40;32.03;;;9.40;99.90;;;;;;5095259;28;20028;-52
2022/09/22 03:24:32;;;;;;;68.32;33.92;;;9.40;99.90;;;;;;5077003;28;20035;-52
2022/09/22 03:26:58;;;;;;;79.68;37.65;;;9.40;99.90;;;;;;5095035;28;20180;-52
2022/09/22 03:29:24;;;;;;;79.97;36.50;;;9.50;99.90;;;;;;5076940;28;20119;-52
2022/09/22 03:31:50;;;;;;;92.28;37.72;;;9.50;99.90;;;;;;5095115;28;20078;-52
2022/09/22 03:34:16;;;;;;;90.10;36.80;;;9.60;99.90;;;;;;5095087;28;20509;-52
2022/09/22 03:36:42;;;;;;;73.20;33.40;;;9.50;99.90;;;;;;5076018;28;20078;-52
2022/09/22 03:39:09;;;;;;;76.90;34.05;;;9.50;99.90;;;;;;5094644;28;20431;-53
2022/09/22 03:41:36;;;;;;;106.75;37.80;;;9.70;99.90;;;;;;5076902;28;20032;-52
2022/09/22 03:44:03;;;;;;;92.32;37.67;;;9.60;99.90;;;;;;5094890;28;20436;-52
2022/09/22 03:46:29;;;;;;;109.03;38.15;;;9.60;99.90;;;;;;5094765;28;20028;-52
2022/09/22 03:48:55;;;;;;;94.60;36.00;;;9.50;99.90;;;;;;5077184;28;20027;-52
2022/09/22 03:51:21;;;;;;;120.45;32.95;;;9.50;99.90;;;;;;5094815;28;20245;-52
2022/09/22 03:53:47;;;;;;;85.82;31.02;;;9.60;99.90;;;;;;5094486;28;20460;-52
2022/09/22 03:56:15;;;;;;;95.35;31.65;;;9.70;99.90;;;;;;5094851;28;20036;-52
2022/09/22 03:58:42;;;;;;;90.55;30.95;;;9.60;99.90;;;;;;5094835;28;20467;-52
2022/09/22 04:01:09;;;;;;;108.88;33.95;;;9.60;99.90;;;;;;5110041;28;20040;-52
2022/09/22 04:03:36;;;;;;;251.70;35.92;;;9.60;99.90;;;;;;5094757;28;20469;-52
2022/09/22 04:06:02;;;;;;;211.13;33.80;;;9.50;99.90;;;;;;5076727;28;20050;-52
2022/09/22 04:08:28;;;;;;;121.80;30.05;;;9.40;99.90;;;;;;5094514;28;20108;-52
2022/09/22 04:10:56;;;;;;;108.85;32.13;;;9.30;99.90;;;;;;5094346;28;20059;-52
2022/09/22 04:13:22;;;;;;;97.40;30.33;;;9.40;99.90;;;;;;5094576;28;20052;-52
2022/09/22 04:15:48;;;;;;;100.00;30.67;;;9.40;99.90;;;;;;5094441;28;20078;-52
2022/09/22 04:18:15;;;;;;;143.25;30.08;;;9.40;99.90;;;;;;5094452;28;20260;-52
2022/09/22 04:20:44;;;;;;;151.55;29.83;;;9.40;99.90;;;;;;5076096;28;20028;-52
2022/09/22 04:23:12;;;;;;;112.22;27.00;;;9.40;99.90;;;;;;5094453;28;20066;-52
2022/09/22 04:25:39;;;;;;;85.38;27.95;;;9.30;99.90;;;;;;5094509;28;20069;-52
2022/09/22 04:28:06;;;;;;;84.75;27.17;;;9.30;99.90;;;;;;5094486;28;20073;-52
2022/09/22 04:30:33;;;;;;;73.65;23.83;;;9.30;99.90;;;;;;5094495;28;20050;-52
2022/09/22 04:33:00;;;;;;;75.93;24.95;;;9.30;99.90;;;;;;5094453;28;20032;-52
2022/09/22 04:35:27;;;;;;;175.35;29.00;;;9.30;99.90;;;;;;5094583;28;20031;-53
2022/09/22 04:37:57;;;;;;;78.47;27.75;;;9.30;99.90;;;;;;5094403;28;20055;-52
2022/09/22 04:40:24;;;;;;;76.35;28.13;;;9.30;99.90;;;;;;5093923;28;20040;-52
2022/09/22 04:42:50;;;;;;;82.35;28.33;;;9.40;99.90;;;;;;5094154;28;20405;-52
2022/09/22 04:45:16;;;;;;;71.60;27.65;;;9.40;99.90;;;;;;5094257;28;20031;-52
2022/09/22 04:47:47;;;;;;;80.03;26.02;;;9.30;99.90;;;;;;5094471;28;20434;-52
2022/09/22 04:50:13;;;;;;;76.68;27.70;;;9.20;99.90;;;;;;5094204;28;20496;-52
2022/09/22 04:52:47;;;;;;;66.78;25.45;;;9.30;99.90;;;;;;5076228;28;20393;-52
2022/09/22 04:55:14;;;;;;;119.65;28.27;;;9.40;99.90;;;;;;5094054;28;20119;-52
2022/09/22 04:57:41;;;;;;;83.32;26.65;;;9.30;99.90;;;;;;5094103;28;20024;-52
2022/09/22 05:00:08;;;;;;;113.15;28.75;;;9.30;99.90;;;;;;5093863;28;20121;-52
2022/09/22 05:02:34;;;;;;;139.88;28.70;;;9.10;99.90;;;;;;5094052;28;20027;-52
2022/09/22 05:05:01;;;;;;;75.13;26.08;;;9.10;99.90;;;;;;5093980;28;20385;-53
2022/09/22 05:07:27;;;;;;;60.33;24.73;;;9.30;99.90;;;;;;5093984;28;20020;-52
2022/09/22 05:09:53;;;;;;;60.65;24.13;;;9.30;99.90;;;;;;5094019;28;20039;-52
2022/09/22 05:12:20;;;;;;;55.13;23.13;;;9.30;99.90;;;;;;5093845;28;20039;-52
2022/09/22 05:14:46;;;;;;;60.13;22.33;;;9.40;99.90;;;;;;5094153;28;20030;-52
2022/09/22 05:17:12;;;;;;;43.30;20.63;;;9.30;99.90;;;;;;5113807;28;20052;-53
2022/09/22 05:19:38;;;;;;;52.78;19.73;;;9.30;99.90;;;;;;5114134;28;20020;-52
2022/09/22 05:22:04;;;;;;;51.30;20.25;;;9.30;99.90;;;;;;5113797;28;20031;-52
2022/09/22 05:24:31;;;;;;;55.80;20.77;;;9.30;99.90;;;;;;5116578;28;20485;-52
2022/09/22 05:26:57;;;;;;;76.38;23.70;;;9.20;99.90;;;;;;5099456;28;20446;-52
2022/09/22 05:29:24;;;;;;;73.18;22.92;;;9.20;99.90;;;;;;5099275;28;20491;-52
2022/09/22 05:31:50;;;;;;;64.60;24.08;;;9.20;99.90;;;;;;5117470;28;20435;-52
2022/09/22 05:34:16;;;;;;;89.40;25.80;;;9.20;99.90;;;;;;5118040;28;20027;-52
2022/09/22 05:36:42;;;;;;;75.50;23.13;;;9.20;99.90;;;;;;5116266;28;20042;-52
2022/09/22 05:39:08;;;;;;;79.47;25.80;;;9.20;99.90;;;;;;5111141;28;20476;-53
2022/09/22 05:41:35;;;;;;;63.63;24.45;;;9.20;99.90;;;;;;5097300;28;20044;-52
2022/09/22 05:44:01;;;;;;;76.30;27.35;;;9.30;99.90;;;;;;5096818;28;20031;-52
2022/09/22 05:46:27;;;;;;;61.38;26.55;;;9.20;99.90;;;;;;5096978;28;20024;-52
2022/09/22 05:48:53;;;;;;;68.07;24.17;;;9.20;99.90;;;;;;5096494;28;20048;-52
2022/09/22 05:51:24;;;;;;;76.47;27.73;;;9.10;99.90;;;;;;5097691;28;20063;-52
2022/09/22 05:53:51;;;;;;;94.65;29.92;;;9.20;99.90;;;;;;5116732;28;20023;-52
2022/09/22 05:56:17;;;;;;;78.78;27.88;;;9.20;99.90;;;;;;5116894;28;20054;-52
2022/09/22 05:58:46;;;;;;;63.95;27.60;;;9.20;99.90;;;;;;5116790;28;20032;-52
2022/09/22 06:01:12;;;;;;;75.63;29.42;;;9.20;99.90;;;;;;5117066;28;20085;-52
2022/09/22 06:03:38;;;;;;;93.35;31.70;;;9.30;99.90;;;;;;5098591;28;20024;-52
2022/09/22 06:06:04;;;;;;;85.82;31.98;;;9.20;99.90;;;;;;5117191;28;20023;-52
2022/09/22 06:08:30;;;;;;;83.15;31.33;;;9.20;99.90;;;;;;5117006;28;20020;-52
2022/09/22 06:10:57;;;;;;;63.97;29.00;;;9.20;99.90;;;;;;5117126;28;20126;-52
2022/09/22 06:13:23;;;;;;;67.30;31.38;;;9.20;99.90;;;;;;5116644;28;20084;-52
2022/09/22 06:15:49;;;;;;;66.40;30.80;;;9.20;99.90;;;;;;5116389;28;20077;-52
2022/09/22 06:18:19;;;;;;;74.95;33.55;;;9.20;99.90;;;;;;5116729;28;20156;-52
2022/09/22 06:20:45;;;;;;;138.57;42.47;;;9.20;99.90;;;;;;5116987;28;20028;-52
2022/09/22 06:23:14;;;;;;;130.02;45.38;;;9.30;99.90;;;;;;5116567;28;20027;-52
2022/09/22 06:25:42;;;;;;;146.05;48.75;;;9.30;99.90;;;;;;5116599;28;20024;-52
2022/09/22 06:28:13;;;;;;;131.63;45.80;;;9.40;99.90;;;;;;5116734;28;20019;-52
2022/09/22 06:30:50;;;;;;;128.32;42.10;;;9.40;99.90;;;;;;5098597;28;20070;-52
2022/09/22 06:33:17;;;;;;;129.57;43.83;;;9.50;99.90;;;;;;5080574;28;20127;-52
2022/09/22 06:35:44;;;;;;;132.88;44.28;;;9.60;99.90;;;;;;5117205;28;20032;-52
2022/09/22 06:38:13;;;;;;;182.85;55.20;;;9.80;99.90;;;;;;5116970;28;20108;-52
2022/09/22 06:40:41;;;;;;;170.88;53.53;;;10.00;99.90;;;;;;5116469;28;20384;-52
2022/09/22 06:43:11;;;;;;;164.80;53.85;;;10.40;99.90;;;;;;5116325;28;20481;-52
2022/09/22 06:45:38;;;;;;;191.30;57.90;;;10.60;99.90;;;;;;5116432;28;20127;-52
2022/09/22 06:48:04;;;;;;;176.60;54.38;;;10.90;99.90;;;;;;5081228;28;20023;-52
2022/09/22 06:50:31;;;;;;;166.18;54.05;;;10.90;99.90;;;;;;5116316;28;20131;-52
2022/09/22 06:52:58;;;;;;;167.75;54.15;;;11.10;99.90;;;;;;5115983;28;20038;-52
2022/09/22 06:55:26;;;;;;;178.20;56.13;;;11.40;99.90;;;;;;5116136;28;20031;-52
2022/09/22 06:57:52;;;;;;;171.27;55.05;;;11.50;99.90;;;;;;5116011;28;20031;-52
2022/09/22 07:00:18;;;;;;;182.50;57.67;;;11.50;99.90;;;;;;5115654;28;20039;-52
2022/09/22 07:02:43;;;;;;;181.38;57.42;;;11.60;99.90;;;;;;5115958;28;20103;-53
2022/09/22 07:05:09;;;;;;;175.10;57.00;;;11.50;99.90;;;;;;5113104;28;20106;-53
2022/09/22 07:07:35;;;;;;;187.23;58.08;;;11.50;99.90;;;;;;5097299;28;20172;-53
2022/09/22 07:10:01;;;;;;;187.20;59.80;;;11.50;99.90;;;;;;5115679;28;20070;-52
2022/09/22 07:12:27;;;;;;;185.48;58.03;;;11.60;99.90;;;;;;5115439;28;20028;-53
2022/09/22 07:14:55;;;;;;;174.25;56.92;;;11.70;99.90;;;;;;5115592;28;20110;-52
2022/09/22 07:17:21;;;;;;;175.68;56.10;;;11.70;99.90;;;;;;5115461;28;20030;-53
2022/09/22 07:19:47;;;;;;;202.18;60.60;;;11.90;99.90;;;;;;5115385;28;20093;-53
2022/09/22 07:22:18;;;;;;;180.23;58.35;;;12.10;99.90;;;;;;5109560;28;20031;-52
2022/09/22 07:24:45;;;;;;;172.82;56.97;;;12.50;99.90;;;;;;5095416;28;20144;-53
2022/09/22 07:27:19;;;;;;;206.70;70.55;;;12.80;99.90;;;;;;5094952;28;20100;-53
2022/09/22 07:29:47;;;;;;;221.75;67.65;;;12.90;99.90;;;;;;5099376;28;20114;-53
2022/09/22 07:32:13;;;;;;;204.23;67.38;;;13.20;99.90;;;;;;5114798;28;20024;-52
2022/09/22 07:34:39;;;;;;;201.90;65.30;;;13.50;99.90;;;;;;5090364;28;20385;-53
2022/09/22 07:37:16;;;;;;;190.02;62.55;;;13.90;99.90;;;;;;5110210;28;20525;-53
2022/09/22 07:39:44;;;;;;;204.25;66.13;;;14.00;99.90;;;;;;5095832;28;20067;-53
2022/09/22 07:42:11;;;;;;;190.57;65.68;;;14.40;99.90;;;;;;5111592;28;20397;-53
2022/09/22 07:48:35;;;;;;;202.20;66.90;;;15.00;99.90;;;;;;5101653;28;20032;-53
2022/09/22 07:50:07;;;;;;;170.15;59.22;;;15.30;99.90;;;;;;5108200;28;20122;-53
2022/09/22 07:52:34;;;;;;;170.07;61.55;;;15.80;99.90;;;;;;5084673;28;20031;-56
2022/09/22 07:54:59;;;;;;;179.50;61.55;;;16.30;99.90;;;;;;5089985;28;20055;-56
2022/09/22 07:57:27;;;;;;;177.68;62.65;;;16.90;99.90;;;;;;5106260;28;20058;-56
2022/09/22 07:59:53;;;;;;;174.48;61.13;;;17.60;98.90;;;;;;5107455;28;20027;-56
2022/09/22 08:02:24;;;;;;;189.77;61.40;;;17.10;97.50;;;;;;5110268;28;20059;-56
2022/09/22 08:04:50;;;;;;;;;;;17.60;97.60;;;;;;5101302;28;20050;-56
2022/09/22 08:07:17;;;;;;;156.07;52.38;;;17.70;95.40;;;;;;5102306;28;19967;-56
2022/09/22 08:09:46;;;;;;;143.93;48.72;;;18.10;92.50;;;;;;5108501;28;20058;-56
2022/09/22 08:12:13;;;;;;;125.03;42.17;;;18.30;93.20;;;;;;5107608;28;20051;-56
2022/09/22 08:14:39;;;;;;;123.65;42.88;;;19.00;90.40;;;;;;5112907;28;20110;-56
2022/09/22 08:17:11;;;;;;;117.18;41.35;;;19.20;80.60;;;;;;5114366;28;20032;-56
2022/09/22 08:19:37;;;;;;;122.40;43.97;;;19.10;81.90;;;;;;5095307;28;20032;-56
2022/09/22 08:22:04;;;;;;;105.28;37.20;;;19.10;83.30;;;;;;5087118;28;20065;-58
2022/09/22 08:24:30;;;;;;;105.68;36.28;;;19.30;81.80;;;;;;5100531;28;20031;-56
2022/09/22 08:26:59;;;;;;;100.82;35.10;;;19.60;80.10;;;;;;5106654;28;20457;-56
2022/09/22 08:29:26;;;;;;;67.35;24.45;;;20.30;80.40;;;;;;5111614;28;21146;-56
2022/09/22 08:31:52;;;;;;;67.47;22.67;;;20.40;71.80;;;;;;5110239;28;20184;-56
2022/09/22 08:34:20;;;;;;;56.83;19.52;;;20.50;70.00;;;;;;5104847;28;20092;-56
2022/09/22 08:36:47;;;;;;;45.90;16.58;;;20.40;68.90;;;;;;5104631;28;20020;-56
2022/09/22 08:39:14;;;;;;;38.13;14.87;;;19.80;69.30;;;;;;5081353;28;20093;-57
2022/09/22 08:42:17;;;;;;;37.75;15.70;;;20.20;70.80;;;;;;5112446;28;20579;-56
2022/09/22 08:45:22;;;;;;;46.33;15.40;;;20.40;65.90;;;;;;5074058;28;20039;-56
2022/09/22 08:54:15;;;;;;;55.20;23.15;;;20.80;65.10;;;;;;5067471;28;20047;-56
2022/09/22 08:56:58;;;;;;;78.32;28.02;;;20.30;63.50;;;;;;5086299;28;20511;-56
2022/09/22 08:59:34;;;;;;;83.50;29.40;;;20.20;64.30;;;;;;5109344;28;20028;-56
2022/09/22 09:02:54;;;;;;;60.70;21.55;;;20.40;67.00;;;;;;5098318;28;20024;-56
2022/09/22 09:05:48;;;;;;;78.00;28.98;;;20.30;60.90;;;;;;5099979;28;20040;-57
2022/09/22 09:08:40;;;;;;;60.22;25.02;;;21.00;59.70;;;;;;5113896;28;20031;-56
2022/09/22 09:11:34;;;;;;;65.03;27.45;;;20.30;61.90;;;;;;5099674;28;20032;-56
2022/09/22 09:14:08;;;;;;;101.72;36.00;;;20.50;62.60;;;;;;5118047;28;20023;-56
2022/09/22 09:16:34;;;;;;;74.15;29.05;;;20.50;63.70;;;;;;5117823;28;20036;-56
2022/09/22 09:19:20;;;;;;;64.50;25.08;;;20.00;61.50;;;;;;5108368;28;20036;-56
2022/09/22 09:21:53;;;;;;;66.85;27.65;;;20.30;64.90;;;;;;5114998;28;20044;-56
2022/09/22 09:24:31;;;;;;;69.20;26.80;;;20.90;65.50;;;;;;5114927;28;20388;-56
2022/09/22 09:27:08;;;;;;;82.57;35.45;;;21.10;63.50;;;;;;5101655;28;20028;-56
2022/09/22 09:30:05;;;;;;;76.28;39.08;;;20.90;61.20;;;;;;5084358;28;20030;-56
2022/09/22 09:32:42;;;;;;;59.78;34.72;;;20.60;61.00;;;;;;5099087;28;20032;-56
2022/09/22 09:35:13;;;;;;;34.80;19.40;;;20.30;60.80;;;;;;5111703;28;20024;-56
2022/09/22 09:37:42;;;;;;;36.17;20.83;;;20.50;60.00;;;;;;5111106;28;20045;-56
2022/09/22 09:40:18;;;;;;;29.75;16.23;;;21.30;61.50;;;;;;5096246;28;20113;-56
2022/09/22 09:42:46;;;;;;;17.80;10.48;;;21.30;57.20;;;;;;5117641;28;20077;-56
2022/09/22 09:45:17;;;;;;;24.55;14.07;;;21.00;56.00;;;;;;5117097;28;20063;-56
2022/09/22 09:48:11;;;;;;;28.35;14.18;;;21.00;56.50;;;;;;5114557;28;20028;-56
2022/09/22 09:50:38;;;;;;;19.60;11.95;;;21.40;57.60;;;;;;5102990;28;20107;-56
2022/09/22 09:53:05;;;;;;;26.75;10.75;;;21.20;57.40;;;;;;5112608;28;20043;-56
2022/09/22 09:55:32;;;;;;;15.07;7.60;;;21.90;55.10;;;;;;5114662;28;20023;-56
2022/09/22 10:00:29;;;;;;;13.30;6.80;;;22.30;52.70;;;;;;5115592;28;20431;-56
2022/09/22 10:01:05;;;;;;;14.35;7.95;;;22.70;54.70;;;;;;5114328;28;20484;-57
2022/09/22 10:03:34;;;;;;;14.95;7.45;;;23.20;54.30;;;;;;5117519;28;20038;-56
2022/09/22 10:06:09;;;;;;;14.48;7.88;;;23.20;50.70;;;;;;5105387;28;20030;-57
2022/09/22 10:08:44;;;;;;;10.75;7.07;;;23.40;49.80;;;;;;5115811;28;20027;-57
2022/09/22 10:11:13;;;;;;;14.18;9.02;;;22.60;50.00;;;;;;5117144;28;20024;-57
2022/09/22 10:13:41;;;;;;;16.77;9.32;;;21.90;50.80;;;;;;5117565;28;20034;-57
2022/09/22 10:16:22;;;;;;;15.57;8.35;;;21.90;58.00;;;;;;5117466;28;20036;-57
2022/09/22 10:19:16;;;;;;;10.80;7.03;;;22.20;53.30;;;;;;5117096;28;20554;-57
2022/09/22 10:21:42;;;;;;;15.07;6.72;;;21.70;52.10;;;;;;5096999;28;20099;-57
2022/09/22 10:24:30;;;;;;;6.85;4.95;;;21.00;53.70;;;;;;5106145;28;20028;-57
2022/09/22 10:26:56;;;;;;;18.02;4.95;;;20.60;55.00;;;;;;5116033;28;20047;-57
2022/09/22 10:29:23;;;;;;;7.50;3.60;;;20.60;55.20;;;;;;5110435;28;20085;-56
2022/09/22 10:32:14;;;;;;;13.05;5.13;;;20.80;55.30;;;;;;5104223;28;20028;-57
2022/09/22 10:34:45;;;;;;;19.58;5.50;;;21.20;55.00;;;;;;5115905;27;20074;-56
2022/09/22 10:37:15;;;;;;;9.77;2.90;;;20.90;56.30;;;;;;5111943;28;20055;-56
2022/09/22 10:40:02;;;;;;;11.07;3.53;;;21.20;53.70;;;;;;5117073;28;20052;-56
2022/09/22 10:42:42;;;;;;;7.22;3.70;;;21.40;52.50;;;;;;5098516;28;20027;-56
2022/09/22 10:45:18;;;;;;;6.53;3.55;;;21.20;54.10;;;;;;5097455;28;20114;-56
2022/09/22 10:47:53;;;;;;;8.55;3.40;;;21.00;55.00;;;;;;5109260;28;20028;-57
2022/09/22 10:50:37;;;;;;;8.82;3.60;;;21.10;54.10;;;;;;5115625;28;20110;-56
2022/09/22 10:53:30;;;;;;;7.40;4.60;;;21.70;53.70;;;;;;5115390;28;20502;-56
2022/09/22 10:56:07;;;;;;;11.65;4.10;;;22.30;51.40;;;;;;5116350;28;20096;-56
2022/09/22 10:58:45;;;;;;;6.38;3.20;;;22.20;49.20;;;;;;5115730;28;20042;-57
2022/09/22 11:01:21;;;;;;;11.48;4.60;;;22.50;49.80;;;;;;5097214;28;20042;-57
2022/09/22 11:04:20;;;;;;;21.80;5.50;;;22.80;50.30;;;;;;5097658;28;20053;-56
2022/09/22 11:13:11;;;;;;;5.28;2.78;;;22.70;48.70;;;;;;5115406;28;20058;-57
2022/09/22 11:15:44;;;;;;;4.53;2.70;;;23.10;47.60;;;;;;5114671;28;20028;-57
2022/09/22 11:18:22;;;;;;;11.52;4.00;;;23.10;47.40;;;;;;5115311;28;20039;-56
2022/09/22 11:21:26;;;;;;;7.30;3.33;;;23.50;47.50;;;;;;5114328;28;20027;-57
2022/09/22 11:24:20;;;;;;;7.85;3.70;;;23.10;44.60;;;;;;5055132;28;20040;-57
2022/09/22 11:26:57;;;;;;;4.15;2.83;;;22.90;47.10;;;;;;5109437;28;20102;-56
2022/09/22 11:29:57;;;;;;;4.82;3.25;;;23.60;46.20;;;;;;5116128;28;20020;-57
2022/09/22 11:32:41;;;;;;;6.65;3.13;;;23.60;47.40;;;;;;5115922;28;20075;-57
2022/09/22 11:35:16;;;;;;;9.23;3.80;;;23.40;46.60;;;;;;5097559;28;20028;-57
2022/09/22 11:38:03;;;;;;;10.45;3.90;;;23.10;44.90;;;;;;5115369;28;20080;-57
2022/09/22 11:41:15;;;;;;;9.80;3.70;;;22.30;46.80;;;;;;5114931;28;20473;-57
2022/09/22 11:44:10;;;;;;;7.28;3.85;;;21.60;46.70;;;;;;5101232;28;20024;-57
2022/09/22 11:46:54;;;;;;;3.63;2.42;;;20.80;48.30;;;;;;5097401;28;20059;-57
2022/09/22 11:49:54;;;;;;;13.77;6.00;;;20.90;51.60;;;;;;5114689;28;20057;-56
2022/09/22 11:52:42;;;;;;;11.07;4.30;;;20.70;50.70;;;;;;5106604;28;20052;-57
2022/09/22 11:55:11;;;;;;;4.38;2.97;;;21.20;51.40;;;;;;5103319;28;20028;-57
2022/09/22 11:57:41;;;;;;;10.20;3.63;;;21.80;50.70;;;;;;5119215;27;20028;-56
2022/09/22 12:00:18;;;;;;;5.88;2.97;;;21.90;48.80;;;;;;5094156;28;20080;-56
2022/09/22 12:02:59;;;;;;;5.10;3.05;;;21.50;49.40;;;;;;5076132;28;20469;-57
2022/09/22 12:05:41;;;;;;;6.57;4.43;;;21.30;49.30;;;;;;5103531;28;20165;-57
2022/09/22 12:08:14;;;;;;;7.35;3.20;;;21.10;48.70;;;;;;5107595;28;20039;-56
2022/09/22 12:10:46;;;;;;;15.15;3.88;;;20.90;49.10;;;;;;5109959;28;20038;-56
2022/09/22 12:13:14;;;;;;;11.85;4.72;;;19.90;50.20;;;;;;5106407;28;20092;-56
2022/09/22 12:15:49;;;;;;;6.97;3.60;;;19.90;50.00;;;;;;5108830;28;20020;-56
2022/09/22 12:18:22;;;;;;;19.30;4.95;;;20.10;51.50;;;;;;5101468;28;20468;-56
2022/09/22 12:21:42;;;;;;;34.42;16.65;;;20.10;51.20;;;;;;5094288;28;20024;-56
2022/09/22 12:24:10;;;;;;;15.85;8.35;;;19.70;53.00;;;;;;5034267;28;20029;-56
2022/09/22 12:26:39;;;;;;;6.55;3.10;;;19.60;54.90;;;;;;5080948;28;20042;-56
2022/09/22 12:29:17;;;;;;;16.50;4.97;;;19.30;55.60;;;;;;5104152;28;20036;-56
2022/09/22 12:31:49;;;;;;;8.80;3.88;;;19.30;56.20;;;;;;5105925;28;20522;-56
2022/09/22 12:34:25;;;;;;;44.75;17.75;;;19.20;58.00;;;;;;5098120;28;20067;-56
2022/09/22 12:37:11;;;;;;;15.55;7.35;;;19.10;57.10;;;;;;5108166;28;20030;-56
2022/09/22 12:39:43;;;;;;;16.05;6.70;;;18.70;54.70;;;;;;5109705;28;20043;-56
2022/09/22 12:42:27;;;;;;;13.93;5.50;;;18.30;55.00;;;;;;5123715;27;20059;-56
2022/09/22 12:45:13;;;;;;;20.73;7.50;;;18.50;56.80;;;;;;5099476;28;20392;-57
2022/09/22 12:47:46;;;;;;;49.20;19.55;;;18.40;56.80;;;;;;5115287;28;20031;-57
2022/09/22 12:50:24;;;;;;;38.85;13.48;;;18.40;55.80;;;;;;5118423;28;20063;-57
2022/09/22 12:52:50;;;;;;;16.52;7.00;;;18.20;58.20;;;;;;5118165;28;20027;-57
2022/09/22 12:55:27;;;;;;;20.70;7.25;;;18.00;58.50;;;;;;5118267;28;20035;-57
2022/09/22 12:58:01;;;;;;;9.10;3.55;;;17.90;57.70;;;;;;5118403;28;20023;-57
2022/09/22 13:00:33;;;;;;;25.08;9.02;;;18.10;56.30;;;;;;5118554;28;20491;-57
2022/09/22 13:03:00;;;;;;;21.23;5.75;;;17.90;57.70;;;;;;5109148;28;20114;-57
2022/09/22 13:05:26;;;;;;;7.35;3.97;;;17.80;58.70;;;;;;5110234;28;20024;-57
2022/09/22 13:07:57;;;;;;;14.70;4.00;;;17.90;58.90;;;;;;5109535;28;20031;-57
2022/09/22 13:10:26;;;;;;;14.48;6.07;;;18.10;61.40;;;;;;5087428;28;20054;-56
2022/09/22 13:15:48;;;;;;;15.05;4.47;;;19.00;59.70;;;;;;5109396;28;20059;-57
2022/09/22 13:18:34;;;;;;;9.88;3.30;;;19.30;57.20;;;;;;5097602;28;20107;-57